Winterbourne, United Kingdom
Current Conditions -  °F | °C
As of 12:54 PM on Saturday 25 Oct 2014 (Local Time) from EGUB Reporting Station
Broken Clouds Broken Clouds  
Wind Chill: 57°   Ceiling: 4500
Heat Index: 57°   Visibility: 6mi
Dew Point: 45°   Wind: 14mph
Humidity: 63%   Direction: 210°SSW
Pressure: 30.06"   Gusts: NA
Location:  51.45°N, 1.35°W
Report Text: EGUB 251154Z 21012KT 9999 FEW024 BKN045 14/07 Q1018 BLU NOSIG
Loading
Personal Weather Stations






























Interactive Weather Map
Tropical Storm Tracking
New forecast layout! Learn more

10-Day Weather Forecast

Advertisements
Track Severe Weather on mobile